sensor_id;sensor_type;location;lat;lon;timestamp;noise_LAeq;noise_LA_min;noise_LA_max;noise_LA01;noise_LA95
38366;Laerm;943;51.568;6.998;2022-12-26T00:01:58;42.12;35.74;52.42;;
38366;Laerm;943;51.568;6.998;2022-12-26T00:04:30;53.99;41.13;81.16;;
38366;Laerm;943;51.568;6.998;2022-12-26T00:07:18;43.44;35.49;68.90;;
38366;Laerm;943;51.568;6.998;2022-12-26T00:09:45;45.77;36.52;80.08;;
38366;Laerm;943;51.568;6.998;2022-12-26T00:12:13;42.64;35.57;71.06;;
38366;Laerm;943;51.568;6.998;2022-12-26T00:14:41;44.60;37.73;69.27;;
38366;Laerm;943;51.568;6.998;2022-12-26T00:17:08;40.68;35.77;53.62;;
38366;Laerm;943;51.568;6.998;2022-12-26T00:19:36;39.87;35.59;59.30;;
38366;Laerm;943;51.568;6.998;2022-12-26T00:22:05;39.84;34.71;50.64;;
38366;Laerm;943;51.568;6.998;2022-12-26T00:24:33;41.46;33.88;52.88;;
38366;Laerm;943;51.568;6.998;2022-12-26T00:27:01;38.15;34.15;45.98;;
38366;Laerm;943;51.568;6.998;2022-12-26T00:29:29;41.84;35.54;51.41;;
38366;Laerm;943;51.568;6.998;2022-12-26T00:31:56;40.21;35.06;62.82;;
38366;Laerm;943;51.568;6.998;2022-12-26T00:34:24;39.96;34.62;51.26;;
38366;Laerm;943;51.568;6.998;2022-12-26T00:36:52;42.17;35.75;56.03;;
38366;Laerm;943;51.568;6.998;2022-12-26T00:39:19;40.30;34.61;54.86;;
38366;Laerm;943;51.568;6.998;2022-12-26T00:41:47;40.42;34.74;58.86;;
38366;Laerm;943;51.568;6.998;2022-12-26T00:44:15;39.04;34.73;63.08;;
38366;Laerm;943;51.568;6.998;2022-12-26T00:46:43;39.39;34.43;49.41;;
38366;Laerm;943;51.568;6.998;2022-12-26T00:49:10;39.50;33.45;52.22;;
38366;Laerm;943;51.568;6.998;2022-12-26T00:51:38;39.74;34.23;46.90;;
38366;Laerm;943;51.568;6.998;2022-12-26T00:54:06;39.50;33.57;48.27;;
38366;Laerm;943;51.568;6.998;2022-12-26T00:56:34;39.59;33.42;59.03;;
38366;Laerm;943;51.568;6.998;2022-12-26T00:59:01;38.28;32.98;48.75;;
38366;Laerm;943;51.568;6.998;2022-12-26T01:01:29;44.46;34.79;72.13;;
38366;Laerm;943;51.568;6.998;2022-12-26T01:03:58;38.21;34.13;54.52;;
38366;Laerm;943;51.568;6.998;2022-12-26T01:06:25;39.08;32.87;49.75;;
38366;Laerm;943;51.568;6.998;2022-12-26T01:08:53;42.64;35.58;72.14;;
38366;Laerm;943;51.568;6.998;2022-12-26T01:11:21;41.86;35.58;69.59;;
38366;Laerm;943;51.568;6.998;2022-12-26T01:14:17;38.68;34.86;58.77;;
38366;Laerm;943;51.568;6.998;2022-12-26T01:16:46;43.01;35.44;72.45;;
38366;Laerm;943;51.568;6.998;2022-12-26T01:19:14;42.55;32.99;74.05;;
38366;Laerm;943;51.568;6.998;2022-12-26T01:21:41;41.35;33.73;69.64;;
38366;Laerm;943;51.568;6.998;2022-12-26T01:24:09;50.48;36.09;83.51;;
38366;Laerm;943;51.568;6.998;2022-12-26T01:26:37;48.96;39.22;79.05;;
38366;Laerm;943;51.568;6.998;2022-12-26T01:29:04;45.31;34.98;76.44;;
38366;Laerm;943;51.568;6.998;2022-12-26T01:31:32;39.64;34.80;54.81;;
38366;Laerm;943;51.568;6.998;2022-12-26T01:34:00;40.78;34.66;54.65;;
38366;Laerm;943;51.568;6.998;2022-12-26T01:36:27;46.32;35.88;77.94;;
38366;Laerm;943;51.568;6.998;2022-12-26T01:38:55;40.37;34.13;69.82;;
38366;Laerm;943;51.568;6.998;2022-12-26T01:41:23;39.58;33.39;49.19;;
38366;Laerm;943;51.568;6.998;2022-12-26T01:50:45;41.97;35.87;60.41;;
38366;Laerm;943;51.568;6.998;2022-12-26T01:56:16;44.24;35.12;64.25;;
38366;Laerm;943;51.568;6.998;2022-12-26T01:58:55;45.28;34.46;62.37;;
38366;Laerm;943;51.568;6.998;2022-12-26T02:01:32;39.49;34.12;52.24;;
38366;Laerm;943;51.568;6.998;2022-12-26T02:04:08;38.03;34.36;51.22;;
38366;Laerm;943;51.568;6.998;2022-12-26T02:06:55;40.24;33.15;51.28;;
38366;Laerm;943;51.568;6.998;2022-12-26T02:09:23;39.08;33.96;48.98;;
38366;Laerm;943;51.568;6.998;2022-12-26T02:12:10;42.32;32.25;56.57;;
38366;Laerm;943;51.568;6.998;2022-12-26T02:15:11;37.36;32.72;50.72;;
38366;Laerm;943;51.568;6.998;2022-12-26T02:17:41;37.37;33.01;46.58;;
38366;Laerm;943;51.568;6.998;2022-12-26T02:20:41;37.44;34.18;48.99;;
38366;Laerm;943;51.568;6.998;2022-12-26T02:31:31;38.80;33.52;53.72;;
38366;Laerm;943;51.568;6.998;2022-12-26T02:41:50;40.61;33.88;56.16;;
38366;Laerm;943;51.568;6.998;2022-12-26T02:44:52;38.07;32.36;48.89;;
38366;Laerm;943;51.568;6.998;2022-12-26T02:54:53;36.91;32.81;49.34;;
38366;Laerm;943;51.568;6.998;2022-12-26T02:58:18;38.48;33.30;50.30;;
38366;Laerm;943;51.568;6.998;2022-12-26T03:01:37;37.53;33.61;48.13;;
38366;Laerm;943;51.568;6.998;2022-12-26T03:04:33;36.68;32.78;51.17;;
38366;Laerm;943;51.568;6.998;2022-12-26T03:07:35;39.47;34.29;58.35;;
38366;Laerm;943;51.568;6.998;2022-12-26T03:10:34;39.01;33.15;57.66;;
38366;Laerm;943;51.568;6.998;2022-12-26T03:13:30;41.69;33.97;61.20;;
38366;Laerm;943;51.568;6.998;2022-12-26T03:16:10;43.94;33.80;65.28;;
38366;Laerm;943;51.568;6.998;2022-12-26T03:19:07;42.99;35.20;60.94;;
38366;Laerm;943;51.568;6.998;2022-12-26T03:21:43;39.42;34.46;49.48;;
38366;Laerm;943;51.568;6.998;2022-12-26T03:24:16;47.33;36.14;64.95;;
38366;Laerm;943;51.568;6.998;2022-12-26T03:26:53;54.01;34.55;71.73;;
38366;Laerm;943;51.568;6.998;2022-12-26T03:29:23;51.12;35.67;69.10;;
38366;Laerm;943;51.568;6.998;2022-12-26T03:32:12;40.25;35.55;54.30;;
38366;Laerm;943;51.568;6.998;2022-12-26T03:34:43;44.32;34.90;65.44;;
38366;Laerm;943;51.568;6.998;2022-12-26T03:37:38;42.88;34.42;58.75;;
38366;Laerm;943;51.568;6.998;2022-12-26T03:41:08;41.88;35.43;59.56;;
38366;Laerm;943;51.568;6.998;2022-12-26T03:44:36;39.27;34.31;47.07;;
38366;Laerm;943;51.568;6.998;2022-12-26T03:48:00;41.25;35.76;49.63;;
38366;Laerm;943;51.568;6.998;2022-12-26T03:51:10;39.28;33.92;52.37;;
38366;Laerm;943;51.568;6.998;2022-12-26T03:54:24;47.06;33.73;65.69;;
38366;Laerm;943;51.568;6.998;2022-12-26T03:57:25;44.40;35.39;62.65;;
38366;Laerm;943;51.568;6.998;2022-12-26T04:00:14;44.56;36.37;59.96;;
38366;Laerm;943;51.568;6.998;2022-12-26T04:03:12;41.39;34.99;57.69;;
38366;Laerm;943;51.568;6.998;2022-12-26T04:06:04;41.90;34.60;54.23;;
38366;Laerm;943;51.568;6.998;2022-12-26T04:09:35;42.12;35.78;55.91;;
38366;Laerm;943;51.568;6.998;2022-12-26T04:12:26;39.65;35.90;46.13;;
38366;Laerm;943;51.568;6.998;2022-12-26T04:15:59;41.04;36.12;54.92;;
38366;Laerm;943;51.568;6.998;2022-12-26T04:19:56;40.57;36.04;49.37;;
38366;Laerm;943;51.568;6.998;2022-12-26T04:29:17;38.94;34.93;56.99;;
38366;Laerm;943;51.568;6.998;2022-12-26T04:32:32;41.36;34.90;55.71;;
38366;Laerm;943;51.568;6.998;2022-12-26T04:35:48;44.02;35.28;61.55;;
38366;Laerm;943;51.568;6.998;2022-12-26T04:38:49;44.54;36.34;60.82;;
38366;Laerm;943;51.568;6.998;2022-12-26T04:41:41;40.85;36.18;54.91;;
38366;Laerm;943;51.568;6.998;2022-12-26T04:44:31;41.02;35.59;50.59;;
38366;Laerm;943;51.568;6.998;2022-12-26T04:46:59;46.48;36.12;64.15;;
38366;Laerm;943;51.568;6.998;2022-12-26T04:49:27;45.66;36.28;62.95;;
38366;Laerm;943;51.568;6.998;2022-12-26T04:52:14;44.83;36.51;61.05;;
38366;Laerm;943;51.568;6.998;2022-12-26T04:54:42;41.83;36.59;58.69;;
38366;Laerm;943;51.568;6.998;2022-12-26T04:57:10;46.77;35.98;63.85;;
38366;Laerm;943;51.568;6.998;2022-12-26T04:59:38;46.02;34.73;63.35;;
38366;Laerm;943;51.568;6.998;2022-12-26T05:02:06;41.57;36.05;50.73;;
38366;Laerm;943;51.568;6.998;2022-12-26T05:04:54;39.55;35.68;54.75;;
38366;Laerm;943;51.568;6.998;2022-12-26T05:07:40;41.42;36.12;54.30;;
38366;Laerm;943;51.568;6.998;2022-12-26T05:10:28;39.40;35.94;52.71;;
38366;Laerm;943;51.568;6.998;2022-12-26T05:12:55;41.63;36.81;50.65;;
38366;Laerm;943;51.568;6.998;2022-12-26T05:15:24;41.27;35.71;63.35;;
38366;Laerm;943;51.568;6.998;2022-12-26T05:17:52;42.40;36.40;62.17;;
38366;Laerm;943;51.568;6.998;2022-12-26T05:20:39;43.12;35.67;61.50;;
38366;Laerm;943;51.568;6.998;2022-12-26T05:23:27;43.49;34.75;60.36;;
38366;Laerm;943;51.568;6.998;2022-12-26T05:26:22;40.80;36.31;62.41;;
38366;Laerm;943;51.568;6.998;2022-12-26T05:29:08;41.27;36.05;57.50;;
38366;Laerm;943;51.568;6.998;2022-12-26T05:31:36;42.11;36.14;57.14;;
38366;Laerm;943;51.568;6.998;2022-12-26T05:34:05;43.20;35.95;61.12;;
38366;Laerm;943;51.568;6.998;2022-12-26T05:36:52;41.33;35.92;57.31;;
38366;Laerm;943;51.568;6.998;2022-12-26T05:39:23;42.25;36.00;55.66;;
38366;Laerm;943;51.568;6.998;2022-12-26T05:41:51;48.85;35.99;66.82;;
38366;Laerm;943;51.568;6.998;2022-12-26T05:44:18;48.95;35.96;66.11;;
38366;Laerm;943;51.568;6.998;2022-12-26T05:46:46;47.21;35.87;66.34;;
38366;Laerm;943;51.568;6.998;2022-12-26T05:49:14;46.94;35.84;64.70;;
38366;Laerm;943;51.568;6.998;2022-12-26T05:51:43;47.55;35.65;64.72;;
38366;Laerm;943;51.568;6.998;2022-12-26T05:54:10;41.89;35.98;55.40;;
38366;Laerm;943;51.568;6.998;2022-12-26T05:56:38;41.30;36.26;55.16;;
38366;Laerm;943;51.568;6.998;2022-12-26T05:59:12;44.76;35.48;67.28;;
38366;Laerm;943;51.568;6.998;2022-12-26T06:01:39;45.58;36.54;60.42;;
38366;Laerm;943;51.568;6.998;2022-12-26T06:04:07;50.52;37.00;70.29;;
38366;Laerm;943;51.568;6.998;2022-12-26T06:06:35;46.38;36.61;66.80;;
38366;Laerm;943;51.568;6.998;2022-12-26T06:09:03;46.20;36.23;64.79;;
38366;Laerm;943;51.568;6.998;2022-12-26T06:11:30;44.53;36.48;56.65;;
38366;Laerm;943;51.568;6.998;2022-12-26T06:13:58;43.23;37.68;59.07;;
38366;Laerm;943;51.568;6.998;2022-12-26T06:16:28;40.78;36.67;49.26;;
38366;Laerm;943;51.568;6.998;2022-12-26T06:18:56;44.52;37.06;61.98;;
38366;Laerm;943;51.568;6.998;2022-12-26T06:21:24;45.10;37.42;68.63;;
38366;Laerm;943;51.568;6.998;2022-12-26T06:23:51;45.15;35.85;64.86;;
38366;Laerm;943;51.568;6.998;2022-12-26T06:26:19;45.52;36.47;68.65;;
38366;Laerm;943;51.568;6.998;2022-12-26T06:28:47;42.49;35.73;61.95;;
38366;Laerm;943;51.568;6.998;2022-12-26T06:31:22;44.53;36.45;61.10;;
38366;Laerm;943;51.568;6.998;2022-12-26T06:33:56;42.33;36.07;55.27;;
38366;Laerm;943;51.568;6.998;2022-12-26T06:36:27;43.57;36.98;60.09;;
38366;Laerm;943;51.568;6.998;2022-12-26T06:38:56;46.37;37.18;62.67;;
38366;Laerm;943;51.568;6.998;2022-12-26T06:41:24;42.83;36.82;57.96;;
38366;Laerm;943;51.568;6.998;2022-12-26T06:43:53;44.97;37.92;57.97;;
38366;Laerm;943;51.568;6.998;2022-12-26T06:46:24;43.63;37.86;59.41;;
38366;Laerm;943;51.568;6.998;2022-12-26T06:48:53;41.60;37.06;52.94;;
38366;Laerm;943;51.568;6.998;2022-12-26T06:51:26;42.75;38.13;58.86;;
38366;Laerm;943;51.568;6.998;2022-12-26T06:53:54;42.06;36.18;50.45;;
38366;Laerm;943;51.568;6.998;2022-12-26T06:56:26;42.75;36.69;59.63;;
38366;Laerm;943;51.568;6.998;2022-12-26T06:59:04;43.16;38.94;56.41;;
38366;Laerm;943;51.568;6.998;2022-12-26T07:01:34;46.25;39.53;64.28;;
38366;Laerm;943;51.568;6.998;2022-12-26T07:04:03;44.61;38.43;68.59;;
38366;Laerm;943;51.568;6.998;2022-12-26T07:06:37;43.40;37.61;59.36;;
38366;Laerm;943;51.568;6.998;2022-12-26T07:09:16;43.50;37.61;60.10;;
38366;Laerm;943;51.568;6.998;2022-12-26T07:11:49;47.05;38.35;60.22;;
38366;Laerm;943;51.568;6.998;2022-12-26T07:14:17;43.34;37.89;59.28;;
38366;Laerm;943;51.568;6.998;2022-12-26T07:16:45;43.32;38.26;52.40;;
38366;Laerm;943;51.568;6.998;2022-12-26T07:19:14;42.97;37.76;53.89;;
38366;Laerm;943;51.568;6.998;2022-12-26T07:21:43;43.72;38.68;60.77;;
38366;Laerm;943;51.568;6.998;2022-12-26T07:24:20;42.51;38.32;52.12;;
38366;Laerm;943;51.568;6.998;2022-12-26T07:26:49;43.48;38.92;52.18;;
38366;Laerm;943;51.568;6.998;2022-12-26T07:29:17;48.25;38.80;66.91;;
38366;Laerm;943;51.568;6.998;2022-12-26T07:31:44;43.01;39.13;53.66;;
38366;Laerm;943;51.568;6.998;2022-12-26T07:34:13;45.91;38.71;59.51;;
38366;Laerm;943;51.568;6.998;2022-12-26T07:36:41;50.05;40.60;62.70;;
38366;Laerm;943;51.568;6.998;2022-12-26T07:39:12;44.90;40.15;64.65;;
38366;Laerm;943;51.568;6.998;2022-12-26T07:41:40;47.37;41.00;61.74;;
38366;Laerm;943;51.568;6.998;2022-12-26T07:44:32;47.60;40.17;64.13;;
38366;Laerm;943;51.568;6.998;2022-12-26T07:47:00;45.76;39.23;63.25;;
38366;Laerm;943;51.568;6.998;2022-12-26T07:49:28;52.98;40.55;71.15;;
38366;Laerm;943;51.568;6.998;2022-12-26T07:51:56;50.63;41.03;72.22;;
38366;Laerm;943;51.568;6.998;2022-12-26T07:54:24;44.85;40.49;56.48;;
38366;Laerm;943;51.568;6.998;2022-12-26T07:56:55;47.09;40.74;63.94;;
38366;Laerm;943;51.568;6.998;2022-12-26T07:59:43;44.83;40.18;56.27;;
38366;Laerm;943;51.568;6.998;2022-12-26T08:02:10;50.24;40.25;67.52;;
38366;Laerm;943;51.568;6.998;2022-12-26T08:04:38;46.54;42.24;62.97;;
38366;Laerm;943;51.568;6.998;2022-12-26T08:07:06;54.08;41.46;73.59;;
38366;Laerm;943;51.568;6.998;2022-12-26T08:09:34;46.66;41.68;64.90;;
38366;Laerm;943;51.568;6.998;2022-12-26T08:12:01;46.86;42.03;59.33;;
38366;Laerm;943;51.568;6.998;2022-12-26T08:14:29;46.19;41.23;67.65;;
38366;Laerm;943;51.568;6.998;2022-12-26T08:16:57;55.48;42.12;74.74;;
38366;Laerm;943;51.568;6.998;2022-12-26T08:19:24;63.66;47.10;78.94;;
38366;Laerm;943;51.568;6.998;2022-12-26T08:21:52;59.35;44.26;77.70;;
38366;Laerm;943;51.568;6.998;2022-12-26T08:24:20;52.64;41.73;68.74;;
38366;Laerm;943;51.568;6.998;2022-12-26T08:26:48;53.42;42.02;72.76;;
38366;Laerm;943;51.568;6.998;2022-12-26T08:29:16;50.80;40.57;67.38;;
38366;Laerm;943;51.568;6.998;2022-12-26T08:31:44;45.88;41.83;59.11;;
38366;Laerm;943;51.568;6.998;2022-12-26T08:34:12;59.97;41.25;80.06;;
38366;Laerm;943;51.568;6.998;2022-12-26T08:36:40;49.17;40.48;68.98;;
38366;Laerm;943;51.568;6.998;2022-12-26T08:39:07;47.67;41.45;61.64;;
38366;Laerm;943;51.568;6.998;2022-12-26T08:41:35;46.33;41.10;59.48;;
38366;Laerm;943;51.568;6.998;2022-12-26T08:44:03;47.27;41.85;72.66;;
38366;Laerm;943;51.568;6.998;2022-12-26T08:46:51;47.10;41.50;63.60;;
38366;Laerm;943;51.568;6.998;2022-12-26T08:49:18;46.43;42.49;57.65;;
38366;Laerm;943;51.568;6.998;2022-12-26T08:51:47;45.87;41.19;54.63;;
38366;Laerm;943;51.568;6.998;2022-12-26T08:54:15;46.94;42.60;57.36;;
38366;Laerm;943;51.568;6.998;2022-12-26T08:56:43;44.99;40.81;54.94;;
38366;Laerm;943;51.568;6.998;2022-12-26T08:59:10;46.74;42.36;62.40;;
38366;Laerm;943;51.568;6.998;2022-12-26T09:01:39;48.60;43.53;63.26;;
38366;Laerm;943;51.568;6.998;2022-12-26T09:04:07;47.58;41.94;62.45;;
38366;Laerm;943;51.568;6.998;2022-12-26T09:06:38;48.31;41.74;67.42;;
38366;Laerm;943;51.568;6.998;2022-12-26T09:09:10;47.55;42.94;63.31;;
38366;Laerm;943;51.568;6.998;2022-12-26T09:11:40;50.42;42.93;65.67;;
38366;Laerm;943;51.568;6.998;2022-12-26T09:14:09;46.60;41.04;62.44;;
38366;Laerm;943;51.568;6.998;2022-12-26T09:16:44;48.54;42.04;65.25;;
38366;Laerm;943;51.568;6.998;2022-12-26T09:19:20;48.83;43.51;63.68;;
38366;Laerm;943;51.568;6.998;2022-12-26T09:21:50;48.86;43.25;64.12;;
38366;Laerm;943;51.568;6.998;2022-12-26T09:24:40;49.54;43.95;64.75;;
38366;Laerm;943;51.568;6.998;2022-12-26T09:27:09;49.00;41.37;64.62;;
38366;Laerm;943;51.568;6.998;2022-12-26T09:29:37;55.08;42.17;73.62;;
38366;Laerm;943;51.568;6.998;2022-12-26T09:32:05;48.64;41.63;66.13;;
38366;Laerm;943;51.568;6.998;2022-12-26T09:34:33;46.54;42.45;62.20;;
38366;Laerm;943;51.568;6.998;2022-12-26T09:37:01;47.37;42.73;56.67;;
38366;Laerm;943;51.568;6.998;2022-12-26T09:39:28;47.93;42.88;67.37;;
38366;Laerm;943;51.568;6.998;2022-12-26T09:42:18;49.02;43.15;66.97;;
38366;Laerm;943;51.568;6.998;2022-12-26T09:45:19;48.13;43.21;62.25;;
38366;Laerm;943;51.568;6.998;2022-12-26T09:48:31;49.32;43.43;68.25;;
38366;Laerm;943;51.568;6.998;2022-12-26T09:51:01;53.04;45.25;73.03;;
38366;Laerm;943;51.568;6.998;2022-12-26T09:53:39;61.28;45.43;83.01;;
38366;Laerm;943;51.568;6.998;2022-12-26T09:56:16;54.66;45.03;72.87;;
38366;Laerm;943;51.568;6.998;2022-12-26T09:59:17;58.96;47.02;77.04;;
38366;Laerm;943;51.568;6.998;2022-12-26T10:01:46;53.81;42.67;71.80;;
38366;Laerm;943;51.568;6.998;2022-12-26T10:04:25;50.05;43.38;67.89;;
38366;Laerm;943;51.568;6.998;2022-12-26T10:10:45;57.35;43.94;75.19;;
38366;Laerm;943;51.568;6.998;2022-12-26T10:13:38;54.97;43.36;76.94;;
38366;Laerm;943;51.568;6.998;2022-12-26T10:23:56;49.10;43.73;62.06;;
38366;Laerm;943;51.568;6.998;2022-12-26T10:26:39;50.30;44.05;68.59;;
38366;Laerm;943;51.568;6.998;2022-12-26T10:32:37;49.32;43.35;67.14;;
38366;Laerm;943;51.568;6.998;2022-12-26T10:34:53;51.80;42.48;72.48;;
38366;Laerm;943;51.568;6.998;2022-12-26T10:37:39;50.65;42.79;69.15;;
38366;Laerm;943;51.568;6.998;2022-12-26T10:40:26;49.86;43.89;67.14;;
38366;Laerm;943;51.568;6.998;2022-12-26T10:43:33;55.38;44.14;71.38;;
38366;Laerm;943;51.568;6.998;2022-12-26T10:48:59;56.22;45.80;73.03;;
38366;Laerm;943;51.568;6.998;2022-12-26T10:51:27;52.10;44.09;69.20;;
38366;Laerm;943;51.568;6.998;2022-12-26T10:53:55;52.58;43.04;76.08;;
38366;Laerm;943;51.568;6.998;2022-12-26T10:56:25;54.42;44.00;70.40;;
38366;Laerm;943;51.568;6.998;2022-12-26T10:59:04;54.13;43.30;72.53;;
38366;Laerm;943;51.568;6.998;2022-12-26T11:01:37;55.53;42.93;74.35;;
38366;Laerm;943;51.568;6.998;2022-12-26T11:04:24;50.26;43.05;64.41;;
38366;Laerm;943;51.568;6.998;2022-12-26T11:07:17;50.72;44.01;70.29;;
38366;Laerm;943;51.568;6.998;2022-12-26T11:09:51;53.45;44.68;72.45;;
38366;Laerm;943;51.568;6.998;2022-12-26T11:13:05;50.63;43.76;65.90;;
38366;Laerm;943;51.568;6.998;2022-12-26T11:15:52;51.37;44.41;75.85;;
38366;Laerm;943;51.568;6.998;2022-12-26T11:18:49;50.35;44.48;67.17;;
38366;Laerm;943;51.568;6.998;2022-12-26T11:24:17;54.21;45.56;71.29;;
38366;Laerm;943;51.568;6.998;2022-12-26T11:26:47;54.57;45.37;72.23;;
38366;Laerm;943;51.568;6.998;2022-12-26T11:29:21;54.36;44.39;67.77;;
38366;Laerm;943;51.568;6.998;2022-12-26T11:32:00;57.46;44.23;72.91;;
38366;Laerm;943;51.568;6.998;2022-12-26T11:34:38;57.58;44.59;78.03;;
38366;Laerm;943;51.568;6.998;2022-12-26T11:37:39;56.44;45.24;77.99;;
38366;Laerm;943;51.568;6.998;2022-12-26T11:40:34;50.37;43.99;61.89;;
38366;Laerm;943;51.568;6.998;2022-12-26T11:43:14;56.28;45.65;74.34;;
38366;Laerm;943;51.568;6.998;2022-12-26T11:45:49;48.99;42.46;62.59;;
38366;Laerm;943;51.568;6.998;2022-12-26T11:48:25;62.86;44.40;80.05;;
38366;Laerm;943;51.568;6.998;2022-12-26T11:50:54;58.55;43.24;76.88;;
38366;Laerm;943;51.568;6.998;2022-12-26T11:53:22;56.07;43.92;74.53;;
38366;Laerm;943;51.568;6.998;2022-12-26T11:56:09;56.72;44.60;77.23;;
38366;Laerm;943;51.568;6.998;2022-12-26T11:58:38;52.49;43.20;77.45;;
38366;Laerm;943;51.568;6.998;2022-12-26T12:01:14;50.41;42.27;64.87;;
38366;Laerm;943;51.568;6.998;2022-12-26T12:03:48;54.75;44.37;71.67;;
38366;Laerm;943;51.568;6.998;2022-12-26T12:06:58;50.25;43.41;66.03;;
38366;Laerm;943;51.568;6.998;2022-12-26T12:10:21;53.28;42.91;67.79;;
38366;Laerm;943;51.568;6.998;2022-12-26T12:16:55;57.03;43.47;75.35;;
38366;Laerm;943;51.568;6.998;2022-12-26T12:26:45;61.46;45.24;86.41;;
38366;Laerm;943;51.568;6.998;2022-12-26T12:36:16;64.36;49.68;98.21;;
38366;Laerm;943;51.568;6.998;2022-12-26T12:39:44;64.04;50.11;83.83;;
38366;Laerm;943;51.568;6.998;2022-12-26T12:43:19;56.68;48.64;78.46;;
38366;Laerm;943;51.568;6.998;2022-12-26T12:46:30;51.39;47.76;66.58;;
38366;Laerm;943;51.568;6.998;2022-12-26T12:49:43;55.61;48.06;74.54;;
38366;Laerm;943;51.568;6.998;2022-12-26T13:03:11;49.04;44.90;63.19;;
38366;Laerm;943;51.568;6.998;2022-12-26T13:06:28;50.46;45.52;65.75;;
38366;Laerm;943;51.568;6.998;2022-12-26T13:09:28;48.75;44.35;71.22;;
38366;Laerm;943;51.568;6.998;2022-12-26T13:12:22;49.15;45.89;57.60;;
38366;Laerm;943;51.568;6.998;2022-12-26T13:15:07;48.21;43.87;52.09;;
38366;Laerm;943;51.568;6.998;2022-12-26T13:17:57;49.09;44.97;59.65;;
38366;Laerm;943;51.568;6.998;2022-12-26T13:21:03;48.64;45.11;58.51;;
38366;Laerm;943;51.568;6.998;2022-12-26T13:27:15;50.00;45.03;66.38;;
38366;Laerm;943;51.568;6.998;2022-12-26T13:29:48;55.27;47.25;69.97;;
38366;Laerm;943;51.568;6.998;2022-12-26T13:32:31;57.16;47.21;72.90;;
38366;Laerm;943;51.568;6.998;2022-12-26T13:35:01;51.75;47.26;71.29;;
38366;Laerm;943;51.568;6.998;2022-12-26T13:40:19;53.61;47.12;66.95;;
38366;Laerm;943;51.568;6.998;2022-12-26T13:43:08;56.66;47.52;73.20;;
38366;Laerm;943;51.568;6.998;2022-12-26T13:46:01;51.39;46.50;65.66;;
38366;Laerm;943;51.568;6.998;2022-12-26T13:51:03;55.41;46.66;75.23;;
38366;Laerm;943;51.568;6.998;2022-12-26T13:53:38;51.96;47.53;66.37;;
38366;Laerm;943;51.568;6.998;2022-12-26T13:59:19;51.64;46.58;69.28;;
38366;Laerm;943;51.568;6.998;2022-12-26T14:06:40;50.72;45.24;63.03;;
38366;Laerm;943;51.568;6.998;2022-12-26T14:20:44;50.04;46.44;62.88;;
38366;Laerm;943;51.568;6.998;2022-12-26T14:23:51;50.22;44.87;72.34;;
38366;Laerm;943;51.568;6.998;2022-12-26T14:29:39;51.67;45.65;67.40;;
38366;Laerm;943;51.568;6.998;2022-12-26T14:36:22;49.86;44.67;66.96;;
38366;Laerm;943;51.568;6.998;2022-12-26T14:40:01;49.32;43.91;58.31;;
38366;Laerm;943;51.568;6.998;2022-12-26T14:42:31;49.00;43.44;64.09;;
38366;Laerm;943;51.568;6.998;2022-12-26T14:54:54;49.88;41.33;63.01;;
38366;Laerm;943;51.568;6.998;2022-12-26T14:57:48;75.92;42.97;110.25;;
38366;Laerm;943;51.568;6.998;2022-12-26T15:05:40;51.76;44.49;67.40;;
38366;Laerm;943;51.568;6.998;2022-12-26T15:12:00;47.15;42.99;56.03;;
38366;Laerm;943;51.568;6.998;2022-12-26T15:41:38;48.76;42.69;61.45;;
38366;Laerm;943;51.568;6.998;2022-12-26T15:44:44;47.64;41.52;60.51;;
38366;Laerm;943;51.568;6.998;2022-12-26T15:51:09;46.84;42.07;53.40;;
38366;Laerm;943;51.568;6.998;2022-12-26T15:58:44;47.87;43.50;59.19;;
38366;Laerm;943;51.568;6.998;2022-12-26T16:01:45;53.14;43.12;74.77;;
38366;Laerm;943;51.568;6.998;2022-12-26T16:04:43;52.88;43.37;70.84;;
38366;Laerm;943;51.568;6.998;2022-12-26T16:07:43;47.90;43.23;61.36;;
38366;Laerm;943;51.568;6.998;2022-12-26T16:10:35;55.69;43.46;77.06;;
38366;Laerm;943;51.568;6.998;2022-12-26T16:15:59;49.22;42.61;71.57;;
38366;Laerm;943;51.568;6.998;2022-12-26T16:18:32;46.25;42.78;54.71;;
38366;Laerm;943;51.568;6.998;2022-12-26T16:21:05;47.67;43.40;61.59;;
38366;Laerm;943;51.568;6.998;2022-12-26T16:23:54;47.15;43.72;57.70;;
38366;Laerm;943;51.568;6.998;2022-12-26T16:26:34;45.45;41.41;54.51;;
38366;Laerm;943;51.568;6.998;2022-12-26T16:29:06;46.46;41.59;60.54;;
38366;Laerm;943;51.568;6.998;2022-12-26T16:31:36;46.35;42.02;54.06;;
38366;Laerm;943;51.568;6.998;2022-12-26T16:34:05;45.65;42.01;56.43;;
38366;Laerm;943;51.568;6.998;2022-12-26T16:36:33;47.62;43.16;58.05;;
38366;Laerm;943;51.568;6.998;2022-12-26T16:39:10;48.38;43.40;60.02;;
38366;Laerm;943;51.568;6.998;2022-12-26T16:42:29;47.16;42.99;62.56;;
38366;Laerm;943;51.568;6.998;2022-12-26T16:44:59;46.63;42.60;59.19;;
38366;Laerm;943;51.568;6.998;2022-12-26T16:47:31;47.59;42.33;59.31;;
38366;Laerm;943;51.568;6.998;2022-12-26T16:50:03;50.08;43.01;65.16;;
38366;Laerm;943;51.568;6.998;2022-12-26T16:52:38;47.17;41.60;64.76;;
38366;Laerm;943;51.568;6.998;2022-12-26T16:58:30;51.30;42.48;72.86;;
38366;Laerm;943;51.568;6.998;2022-12-26T17:01:18;49.94;42.99;64.45;;
38366;Laerm;943;51.568;6.998;2022-12-26T17:04:22;48.67;42.45;58.16;;
38366;Laerm;943;51.568;6.998;2022-12-26T17:07:04;46.48;42.31;59.45;;
38366;Laerm;943;51.568;6.998;2022-12-26T17:09:50;50.28;43.65;71.38;;
38366;Laerm;943;51.568;6.998;2022-12-26T17:12:37;47.32;40.83;72.16;;
38366;Laerm;943;51.568;6.998;2022-12-26T17:15:16;46.86;41.60;69.22;;
38366;Laerm;943;51.568;6.998;2022-12-26T17:17:44;54.79;42.49;75.01;;
38366;Laerm;943;51.568;6.998;2022-12-26T17:22:57;46.63;42.43;58.53;;
38366;Laerm;943;51.568;6.998;2022-12-26T17:25:31;47.79;40.57;67.45;;
38366;Laerm;943;51.568;6.998;2022-12-26T17:30:46;47.35;42.24;58.59;;
38366;Laerm;943;51.568;6.998;2022-12-26T17:33:25;48.52;42.58;64.29;;
38366;Laerm;943;51.568;6.998;2022-12-26T17:36:05;46.94;42.50;56.33;;
38366;Laerm;943;51.568;6.998;2022-12-26T17:39:24;45.30;41.41;59.63;;
38366;Laerm;943;51.568;6.998;2022-12-26T17:42:00;47.31;41.01;61.56;;
38366;Laerm;943;51.568;6.998;2022-12-26T17:44:43;46.22;41.93;58.01;;
38366;Laerm;943;51.568;6.998;2022-12-26T17:47:22;47.17;42.36;60.39;;
38366;Laerm;943;51.568;6.998;2022-12-26T17:49:53;49.70;42.07;76.63;;
38366;Laerm;943;51.568;6.998;2022-12-26T17:52:28;46.18;43.12;61.80;;
38366;Laerm;943;51.568;6.998;2022-12-26T17:54:58;46.95;41.59;61.20;;
38366;Laerm;943;51.568;6.998;2022-12-26T17:57:28;52.74;42.72;84.29;;
38366;Laerm;943;51.568;6.998;2022-12-26T17:59:58;46.32;40.77;59.55;;
38366;Laerm;943;51.568;6.998;2022-12-26T18:02:26;46.86;42.46;62.79;;
38366;Laerm;943;51.568;6.998;2022-12-26T18:04:54;45.84;41.64;60.04;;
38366;Laerm;943;51.568;6.998;2022-12-26T18:07:24;52.68;42.23;77.00;;
38366;Laerm;943;51.568;6.998;2022-12-26T18:10:00;47.43;42.37;61.21;;
38366;Laerm;943;51.568;6.998;2022-12-26T18:12:28;47.55;42.43;61.88;;
38366;Laerm;943;51.568;6.998;2022-12-26T18:14:57;52.79;45.03;77.78;;
38366;Laerm;943;51.568;6.998;2022-12-26T18:17:32;48.89;43.27;61.07;;
38366;Laerm;943;51.568;6.998;2022-12-26T18:20:03;46.91;42.43;62.28;;
38366;Laerm;943;51.568;6.998;2022-12-26T18:22:31;46.38;42.15;56.69;;
38366;Laerm;943;51.568;6.998;2022-12-26T18:24:59;46.13;42.16;57.03;;
38366;Laerm;943;51.568;6.998;2022-12-26T18:27:32;45.94;41.87;59.28;;